Buckhorn Atmospheric Data: 05/15/2019 Summary  Detailed Graphs  Station List

  Temperature     Wind Precipitation Visibility
Timestamp Air Wet
Bulb
Dew-
point
24-hr
Max
24-hr
Min
Relative
Humidity
Atmospheric
Pressure
Avg
Speed
Avg
Dir
Spot
Speed
Spot
Dir
Max
Speed
Max
Dir
  Rate Situation Start End 1 hr 3 hr 6 hr 12 hr 24 hr   Situation
Date Time °F °F °F °F °F % in Hg mph ° mph ° mph ° Y/N in/hr text Date Time Date Time in in in in in mi text
05/15/2019 12:09 AM 53.78 52.52 51.44 65.12 49.28 91.0 Not Reported 0.22 E 0.67 N 1.34 SE No 0.000 No Precipitation 05/14/2019 03:23 PM 05/14/2019 03:28 PM 0.008 0.008 0.008 0.008 0.008 Not Reported Not Reported
05/15/2019 12:24 AM 53.78 52.52 51.44 65.12 49.28 91.0 Not Reported 1.12 E 0.67 E 1.57 S No 0.000 No Precipitation 05/14/2019 03:23 PM 05/14/2019 03:28 PM 0.000 0.008 0.008 0.008 0.008 Not Reported Not Reported
05/15/2019 12:39 AM 53.78 52.52 51.62 65.12 49.28 92.0 Not Reported 1.12 SE 0.67 SE 1.57 SE No 0.000 No Precipitation 05/14/2019 03:23 PM 05/14/2019 03:28 PM 0.000 0.008 0.008 0.008 0.008 Not Reported Not Reported
05/15/2019 12:54 AM 53.60 52.34 51.44 65.12 49.28 92.0 Not Reported 0.89 W 0.67 W 1.12 SW No 0.000 No Precipitation 05/14/2019 03:23 PM 05/14/2019 03:28 PM 0.000 0.008 0.008 0.008 0.008 Not Reported Not Reported
05/15/2019 01:09 AM 53.24 52.16 51.26 65.12 49.28 92.0 Not Reported 0.89 S 1.12 SE 1.34 W No 0.000 No Precipitation 05/14/2019 03:23 PM 05/14/2019 03:28 PM 0.000 0.008 0.008 0.008 0.008 Not Reported Not Reported
05/15/2019 01:24 AM 53.42 52.16 51.26 65.12 49.28 92.0 Not Reported 0.89 W 0.89 W 0.45 SE No 0.000 No Precipitation 05/14/2019 03:23 PM 05/14/2019 03:28 PM 0.000 0.008 0.008 0.008 0.008 Not Reported Not Reported
05/15/2019 01:39 AM 53.24 51.98 51.08 65.12 49.28 92.0 Not Reported 0.00 S 0.00 SE 1.34 NW No 0.000 No Precipitation 05/14/2019 03:23 PM 05/14/2019 03:28 PM 0.000 0.008 0.008 0.008 0.008 Not Reported Not Reported
05/15/2019 01:54 AM 53.06 51.98 51.08 65.12 49.28 92.0 Not Reported 0.45 S 0.89 S 0.00 S No 0.000 No Precipitation 05/14/2019 03:23 PM 05/14/2019 03:28 PM 0.000 0.008 0.008 0.008 0.008 Not Reported Not Reported
05/15/2019 02:09 AM 52.88 51.80 50.90 65.12 49.28 92.0 Not Reported 0.89 SE 1.79 SE 0.89 S No 0.000 No Precipitation 05/14/2019 03:23 PM 05/14/2019 03:28 PM 0.000 0.008 0.008 0.008 0.008 Not Reported Not Reported
05/15/2019 02:24 AM 52.52 51.62 50.72 65.12 49.28 93.0 Not Reported 0.00 N 0.00 S 1.57 S No 0.000 No Precipitation 05/14/2019 03:23 PM 05/14/2019 03:28 PM 0.000 0.000 0.008 0.008 0.008 Not Reported Not Reported
05/15/2019 02:39 AM 52.34 51.26 50.36 65.12 49.28 92.0 Not Reported 0.89 SE 1.34 SE 1.12 SE No 0.000 No Precipitation 05/14/2019 03:23 PM 05/14/2019 03:28 PM 0.000 0.000 0.008 0.008 0.008 Not Reported Not Reported
05/15/2019 02:54 AM 52.34 51.26 50.36 65.12 49.28 93.0 Not Reported 0.67 SE 0.67 SE 1.12 SE No 0.000 No Precipitation 05/14/2019 03:23 PM 05/14/2019 03:28 PM 0.000 0.000 0.008 0.008 0.008 Not Reported Not Reported
05/15/2019 03:09 AM 52.34 51.26 50.36 65.12 49.28 92.0 Not Reported 0.89 S 0.00 S 1.57 SE No 0.000 No Precipitation 05/14/2019 03:23 PM 05/14/2019 03:28 PM 0.000 0.000 0.008 0.008 0.008 Not Reported Not Reported
05/15/2019 03:24 AM 52.52 51.44 50.54 65.12 49.28 92.0 Not Reported 0.00 SE 0.00 SE 2.24 SE No 0.000 No Precipitation 05/14/2019 03:23 PM 05/14/2019 03:28 PM 0.000 0.000 0.008 0.008 0.008 Not Reported Not Reported
05/15/2019 03:39 AM 52.52 51.44 50.54 65.12 49.28 92.0 Not Reported 0.67 N 0.45 NE 0.67 E No 0.000 No Precipitation 05/14/2019 03:23 PM 05/14/2019 03:28 PM 0.000 0.000 0.008 0.008 0.008 Not Reported Not Reported
05/15/2019 03:54 AM 52.52 51.44 50.54 65.12 49.28 92.0 Not Reported 0.00 N 0.00 N 1.12 S No 0.000 No Precipitation 05/14/2019 03:23 PM 05/14/2019 03:28 PM 0.000 0.000 0.008 0.008 0.008 Not Reported Not Reported
05/15/2019 04:09 AM 52.70 51.62 50.72 65.12 49.28 92.0 Not Reported 0.00 N 0.00 S 0.45 S No 0.000 No Precipitation 05/14/2019 03:23 PM 05/14/2019 03:28 PM 0.000 0.000 0.008 0.008 0.008 Not Reported Not Reported
05/15/2019 04:24 AM 52.52 51.44 50.54 65.12 49.28 92.0 Not Reported 0.22 SE 0.00 SE 0.89 S Yes 0.043 Rain Slight 05/14/2019 08:21 PM   0.004 0.004 0.016 0.016 0.016 Not Reported Not Reported
05/15/2019 04:39 AM 52.52 51.44 50.54 65.12 49.28 92.0 Not Reported 0.00 S 0.00 S 2.01 SE Yes 0.043 Rain Slight 05/14/2019 08:38 PM   0.008 0.008 0.020 0.020 0.020 Not Reported Not Reported
05/15/2019 04:54 AM 52.52 51.44 50.54 65.12 49.28 92.0 Not Reported 0.45 SW 0.00 E 2.24 SE No 0.000 No Precipitation 05/14/2019 08:38 PM 05/14/2019 08:43 PM 0.008 0.008 0.020 0.020 0.020 Not Reported Not Reported
05/15/2019 05:09 AM 52.16 51.26 50.36 65.12 49.28 93.0 Not Reported 0.00 SW 0.89 S 1.34 W No 0.000 No Precipitation 05/14/2019 08:58 PM 05/14/2019 09:03 PM 0.008 0.008 0.020 0.020 0.020 Not Reported Not Reported
05/15/2019 05:24 AM 52.16 51.08 50.36 65.12 49.28 93.0 Not Reported 0.00 S 0.00 S 0.89 SW No 0.000 No Precipitation 05/14/2019 09:15 PM 05/14/2019 09:20 PM 0.008 0.016 0.016 0.028 0.028 Not Reported Not Reported
05/15/2019 05:39 AM 52.16 51.26 50.36 65.12 49.28 93.0 Not Reported 0.00 N 1.12 S 0.00 S No 0.000 No Precipitation 05/14/2019 09:33 PM 05/14/2019 09:38 PM 0.008 0.020 0.020 0.031 0.031 Not Reported Not Reported
05/15/2019 05:54 AM 51.98 51.08 50.36 65.12 49.28 93.0 Not Reported 1.12 S 2.24 S 0.89 E Yes 0.043 Rain Slight 05/14/2019 09:52 PM   0.016 0.020 0.020 0.035 0.035 Not Reported Not Reported
05/15/2019 06:09 AM 52.16 51.26 50.54 65.12 49.46 94.0 Not Reported 0.00 N 0.00 SW 2.24 S No 0.000 No Precipitation 05/14/2019 09:59 PM 05/14/2019 10:04 PM 0.016 0.028 0.028 0.039 0.039 Not Reported Not Reported
05/15/2019 06:24 AM 52.16 51.26 50.54 65.12 49.64 94.0 Not Reported 1.79 SE 0.67 SE 0.67 SE No 0.000 No Precipitation 05/14/2019 10:11 PM 05/14/2019 10:16 PM 0.016 0.031 0.031 0.039 0.039 Not Reported Not Reported
05/15/2019 06:39 AM 51.98 51.08 50.36 65.12 49.82 94.0 Not Reported 0.00 N 0.00 NE 2.46 SE No 0.000 No Precipitation 05/14/2019 10:25 PM 05/14/2019 10:30 PM 0.016 0.035 0.035 0.043 0.043 Not Reported Not Reported
05/15/2019 06:54 AM 51.98 51.26 50.54 65.12 50.18 94.0 Not Reported 0.89 NW 0.89 W 4.25 E No 0.000 No Precipitation 05/14/2019 10:25 PM 05/14/2019 10:30 PM 0.008 0.035 0.035 0.043 0.043 Not Reported Not Reported
05/15/2019 07:09 AM 51.98 51.08 50.36 65.12 50.54 94.0 Not Reported 0.22 SE 0.00 SE 1.79 S Yes 0.043 Rain Slight 05/14/2019 11:08 PM   0.008 0.039 0.039 0.051 0.051 Not Reported Not Reported
05/15/2019 07:24 AM 51.62 50.90 50.18 65.12 51.08 94.0 Not Reported 0.00 NE 0.00 N 1.57 SE No 0.000 No Precipitation 05/14/2019 11:08 PM 05/14/2019 11:13 PM 0.008 0.035 0.039 0.051 0.051 Not Reported Not Reported
05/15/2019 07:39 AM 51.80 50.90 50.36 65.12 51.62 94.0 Not Reported 1.57 E 0.45 NE 1.12 S No 0.000 No Precipitation 05/14/2019 11:32 PM 05/14/2019 11:37 PM 0.008 0.035 0.039 0.055 0.055 Not Reported Not Reported
05/15/2019 07:54 AM 51.80 51.08 50.36 65.12 51.44 94.0 Not Reported 0.00 SE 0.00 S 1.34 NE No 0.000 No Precipitation 05/14/2019 11:32 PM 05/14/2019 11:37 PM 0.008 0.035 0.039 0.055 0.055 Not Reported Not Reported
05/15/2019 08:09 AM 51.80 51.08 50.36 65.12 51.44 94.0 Not Reported 0.00 N 0.00 S 0.89 SW Yes 0.085 Rain Moderate 05/15/2019 12:05 AM   0.016 0.039 0.055 0.067 0.067 Not Reported Not Reported
05/15/2019 08:24 AM 51.80 50.90 50.36 65.12 51.44 94.0 Not Reported 1.12 NE 0.67 E 1.34 SW Yes 0.043 Rain Slight 05/15/2019 12:18 AM   0.028 0.051 0.067 0.079 0.079 Not Reported Not Reported
05/15/2019 08:39 AM 50.72 49.82 49.10 65.12 50.72 94.0 Not Reported 1.12 SE 2.91 SE 2.46 NW Yes 0.128 Rain Moderate 05/15/2019 12:18 AM   0.043 0.071 0.091 0.102 0.102 Not Reported Not Reported
05/15/2019 08:54 AM 50.54 49.64 48.92 65.12 50.18 94.0 Not Reported 1.12 NE 1.79 NE 2.46 S Yes 0.085 Rain Moderate 05/15/2019 12:18 AM   0.071 0.091 0.110 0.126 0.126 Not Reported Not Reported
05/15/2019 09:09 AM 50.18 49.10 48.38 65.12 50.18 93.0 Not Reported 2.24 E 5.14 SE 4.25 E Yes 0.085 Rain Moderate 05/15/2019 01:06 AM   0.071 0.098 0.126 0.138 0.138 Not Reported Not Reported
05/15/2019 09:24 AM 50.36 49.46 48.56 65.12 49.82 93.0 Not Reported 2.68 SE 2.91 SE 4.92 SE Yes 0.184 Rain Moderate 05/15/2019 01:06 AM   0.091 0.130 0.161 0.169 0.169 Not Reported Not Reported
05/15/2019 09:39 AM 50.36 49.46 48.56 65.12 49.82 93.0 Not Reported 0.89 W 1.12 SE 3.80 S Yes 0.128 Rain Moderate 05/15/2019 01:06 AM   0.102 0.161 0.197 0.205 0.205 Not Reported Not Reported
05/15/2019 09:54 AM 49.82 48.92 47.84 65.12 49.46 93.0 Not Reported 1.12 NE 0.00 NE 6.04 SE Yes 0.128 Rain Moderate 05/15/2019 01:06 AM   0.118 0.197 0.228 0.244 0.244 Not Reported Not Reported
05/15/2019 10:09 AM 49.46 48.20 46.94 65.12 49.46 90.0 Not Reported 3.80 NE 3.58 E 6.49 E Yes 0.085 Rain Moderate 05/15/2019 01:06 AM   0.126 0.209 0.252 0.264 0.264 Not Reported Not Reported
05/15/2019 10:24 AM 50.18 48.92 47.66 65.12 49.46 91.0 Not Reported 2.01 N 1.12 N 6.71 SE Yes 0.085 Rain Moderate 05/15/2019 01:06 AM   0.110 0.236 0.272 0.287 0.287 Not Reported Not Reported
05/15/2019 10:39 AM 50.36 48.92 47.84 65.12 49.46 91.0 Not Reported 2.24 W 1.57 E 2.91 N Yes 0.043 Rain Slight 05/15/2019 02:38 AM   0.091 0.244 0.280 0.299 0.299 Not Reported Not Reported
05/15/2019 10:54 AM 49.82 48.56 47.48 65.12 49.46 91.0 Not Reported 2.01 NE 1.57 E 2.46 NW Yes 0.043 Rain Slight 05/15/2019 02:49 AM   0.059 0.244 0.283 0.303 0.303 Not Reported Not Reported
05/15/2019 11:09 AM 50.36 49.28 48.20 65.12 49.46 92.0 Not Reported 0.45 E 0.22 S 2.91 NE Yes 0.043 Rain Slight 05/15/2019 03:05 AM   0.043 0.244 0.287 0.307 0.311 Not Reported Not Reported
05/15/2019 11:24 AM 50.54 49.46 48.38 65.12 49.46 92.0 Not Reported 1.57 S 0.67 SE 2.91 SE Yes 0.043 Rain Slight 05/15/2019 03:05 AM   0.039 0.244 0.299 0.315 0.323 Not Reported Not Reported
05/15/2019 11:39 AM 50.36 49.28 48.20 65.12 49.46 92.0 Not Reported 2.46 SE 2.46 NE 4.25 E Yes 0.043 Rain Slight 05/15/2019 03:33 AM   0.039 0.236 0.307 0.323 0.335 Not Reported Not Reported
05/15/2019 11:54 AM 50.54 49.46 48.38 65.12 49.46 92.0 Not Reported 3.36 SE 2.68 SE 4.47 SE Yes 0.043 Rain Slight 05/15/2019 03:53 AM   0.043 0.224 0.315 0.335 0.350 Not Reported Not Reported
05/15/2019 12:09 PM 50.36 49.10 48.02 65.12 49.46 91.0 Not Reported 5.14 SE 4.47 E 6.04 E Yes 0.043 Rain Slight 05/15/2019 03:59 AM   0.051 0.224 0.323 0.350 0.362 Not Reported Not Reported
05/15/2019 12:24 PM 50.36 49.28 48.20 65.12 49.46 92.0 Not Reported 4.03 SE 1.34 SE 6.71 E Yes 0.043 Rain Slight 05/15/2019 04:21 AM   0.043 0.201 0.331 0.362 0.374 Not Reported Not Reported
05/15/2019 12:39 PM 50.36 49.28 48.38 65.12 49.46 92.0 Not Reported 1.57 S 0.00 W 5.37 SE No 0.000 No Precipitation 05/15/2019 04:21 AM 05/15/2019 04:39 AM 0.043 0.177 0.335 0.374 0.382 Not Reported Not Reported
05/15/2019 12:54 PM 51.08 49.82 49.10 65.12 49.46 92.0 Not Reported 0.45 NE 0.22 NW 3.13 S Yes 0.043 Rain Slight 05/15/2019 04:53 AM   0.039 0.150 0.343 0.382 0.394 Not Reported Not Reported
05/15/2019 01:09 PM 50.90 49.64 48.74 65.12 49.46 92.0 Not Reported 1.34 NE 2.91 SE 2.68 SE Yes 0.043 Rain Slight 05/15/2019 05:04 AM   0.039 0.138 0.350 0.390 0.402 Not Reported Not Reported
05/15/2019 01:24 PM 50.36 48.92 47.84 65.12 49.46 90.0 Not Reported 3.36 E 4.25 NE 3.36 E Yes 0.085 Rain Moderate 05/15/2019 05:11 AM   0.043 0.134 0.370 0.409 0.421 Not Reported Not Reported
05/15/2019 01:39 PM 50.36 48.92 47.84 65.12 49.46 90.0 Not Reported 1.79 SE 2.01 E 4.25 NE Yes 0.085 Rain Moderate 05/15/2019 05:29 AM   0.051 0.138 0.382 0.421 0.433 Not Reported Not Reported
05/15/2019 01:54 PM 51.62 50.36 49.10 65.12 49.46 91.0 Not Reported 0.67 S 1.12 SW 4.92 SE No 0.000 No Precipitation 05/15/2019 05:29 AM 05/15/2019 05:51 AM 0.055 0.146 0.394 0.433 0.449 Not Reported Not Reported
05/15/2019 02:09 PM 50.90 49.64 48.56 65.12 49.46 91.0 Not Reported 3.80 S 1.79 E 5.14 SE Yes 0.085 Rain Moderate 05/15/2019 05:56 AM   0.063 0.154 0.394 0.453 0.461 Not Reported Not Reported
05/15/2019 02:24 PM 51.44 50.18 49.28 65.12 49.46 92.0 Not Reported 0.67 E 0.67 SE 5.14 E Yes 0.043 Rain Slight 05/15/2019 05:56 AM   0.055 0.150 0.394 0.461 0.472 Not Reported Not Reported
05/15/2019 02:39 PM 51.80 50.54 49.46 65.12 49.46 91.0 Not Reported 0.67 E 2.46 E 2.91 E Yes 0.043 Rain Slight 05/15/2019 06:30 AM   0.055 0.154 0.390 0.480 0.492 Not Reported Not Reported
05/15/2019 02:54 PM 51.44 50.18 48.92 65.12 49.46 90.0 Not Reported 3.80 E 0.45 SE 4.03 S Yes 0.085 Rain Moderate 05/15/2019 06:51 AM   0.055 0.154 0.374 0.492 0.504 Not Reported Not Reported
05/15/2019 03:09 PM 51.62 50.18 48.92 65.12 49.46 90.0 Not Reported 2.91 SE 1.79 SE 10.07 SE Yes 0.043 Rain Slight 05/15/2019 07:08 AM   0.055 0.157 0.382 0.508 0.520 Not Reported Not Reported
05/15/2019 03:24 PM 52.34 50.90 49.82 65.12 49.46 91.0 Not Reported 0.67 NW 0.00 E 2.91 N Yes 0.085 Rain Moderate 05/15/2019 07:19 AM   0.055 0.157 0.354 0.520 0.531 Not Reported Not Reported
05/15/2019 03:39 PM 52.16 50.72 49.64 65.12 49.46 91.0 Not Reported 0.67 N 1.12 W 2.68 SE Yes 0.043 Rain Slight 05/15/2019 07:19 AM   0.051 0.157 0.335 0.531 0.543 Not Reported Not Reported
05/15/2019 03:54 PM 52.16 50.54 49.46 65.12 49.46 90.0 Not Reported 4.70 SE 2.24 SE 3.80 E No 0.000 No Precipitation 05/15/2019 07:19 AM 05/15/2019 07:54 AM 0.055 0.165 0.315 0.547 0.559 Not Reported Not Reported
05/15/2019 04:09 PM 52.88 51.62 50.72 65.12 49.46 91.0 Not Reported 2.91 SE 1.34 N 6.93 SE Yes 0.043 Rain Slight 05/15/2019 08:07 AM   0.043 0.165 0.303 0.555 0.567 Not Reported Not Reported
05/15/2019 04:24 PM 51.98 50.90 49.82 64.22 49.46 92.0 Not Reported 0.89 NW 0.00 NW 4.25 SE Yes 0.043 Rain Slight 05/15/2019 08:18 AM   0.043 0.157 0.291 0.563 0.579 Not Reported Not Reported
05/15/2019 04:39 PM 51.80 50.72 50.00 64.04 49.46 92.0 Not Reported 3.58 SE 0.00 E 3.58 S Yes 0.085 Rain Moderate 05/15/2019 08:18 AM   0.055 0.161 0.299 0.579 0.598 Not Reported Not Reported
05/15/2019 04:54 PM 51.80 50.72 49.82 64.04 49.46 92.0 Not Reported 2.01 S 0.22 NW 3.36 SE Yes 0.128 Rain Moderate 05/15/2019 08:18 AM   0.075 0.185 0.331 0.614 0.630 Not Reported Not Reported
05/15/2019 05:09 PM 52.16 50.90 49.82 64.04 49.46 92.0 Not Reported 2.68 SE 1.79 SE 4.92 SE Yes 0.043 Rain Slight 05/15/2019 08:18 AM   0.083 0.185 0.335 0.626 0.650 Not Reported Not Reported
05/15/2019 05:24 PM 51.80 50.72 49.64 64.04 49.46 92.0 Not Reported 3.58 E 6.49 SE 5.14 S Yes 0.085 Rain Moderate 05/15/2019 08:18 AM   0.091 0.189 0.343 0.642 0.669 Not Reported Not Reported
05/15/2019 05:39 PM 52.16 51.08 50.00 63.32 49.46 92.0 Not Reported 1.57 E 2.01 N 6.49 SE Yes 0.085 Rain Moderate 05/15/2019 08:18 AM   0.091 0.197 0.350 0.654 0.689 Not Reported Not Reported
05/15/2019 05:54 PM 51.80 50.72 49.82 62.78 49.46 92.0 Not Reported 4.25 SE 4.92 SE 3.36 NW Yes 0.085 Rain Moderate 05/15/2019 08:18 AM   0.079 0.205 0.362 0.673 0.709 Not Reported Not Reported
05/15/2019 06:09 PM 51.62 50.36 49.28 62.42 49.46 91.0 Not Reported 1.34 NE 2.24 N 4.92 SE Yes 0.085 Rain Moderate 05/15/2019 08:18 AM   0.083 0.217 0.374 0.693 0.732 Not Reported Not Reported
05/15/2019 06:24 PM 51.62 50.36 49.46 62.42 49.46 92.0 Not Reported 1.79 N 1.79 SW 3.58 SE Yes 0.128 Rain Moderate 05/15/2019 08:18 AM   0.098 0.236 0.394 0.724 0.768 Not Reported Not Reported
05/15/2019 06:39 PM 51.44 50.36 49.64 62.42 49.46 93.0 Not Reported 0.89 E 3.58 S 5.82 NW Yes 0.085 Rain Moderate 05/15/2019 08:18 AM   0.102 0.252 0.409 0.748 0.791 Not Reported Not Reported
05/15/2019 06:54 PM 51.08 50.18 49.28 62.24 49.46 93.0 Not Reported 0.67 N 1.12 NW 5.14 E Yes 0.128 Rain Moderate 05/15/2019 08:18 AM   0.118 0.272 0.433 0.783 0.827 Not Reported Not Reported
05/15/2019 07:09 PM 50.90 50.00 49.10 61.88 49.46 93.0 Not Reported 2.24 W 0.45 E 4.70 SE Yes 0.128 Rain Moderate 05/15/2019 08:18 AM   0.126 0.295 0.461 0.807 0.862 Not Reported Not Reported
05/15/2019 07:24 PM 51.26 50.36 49.46 61.70 49.46 94.0 Not Reported 1.34 W 2.46 W 4.25 NW Yes 0.128 Rain Moderate 05/15/2019 08:18 AM   0.122 0.311 0.469 0.839 0.886 Not Reported Not Reported
05/15/2019 07:39 PM 51.08 50.18 49.46 61.52 49.46 94.0 Not Reported 2.46 S 0.00 E 4.03 NW Yes 0.085 Rain Moderate 05/15/2019 08:18 AM   0.118 0.315 0.472 0.858 0.909 Not Reported Not Reported
05/15/2019 07:54 PM 50.90 50.00 49.28 61.16 49.46 94.0 Not Reported 1.57 NW 2.01 N 2.46 S Yes 0.128 Rain Moderate 05/15/2019 08:18 AM   0.110 0.307 0.492 0.886 0.941 Not Reported Not Reported
05/15/2019 08:09 PM 50.54 49.64 49.10 60.80 49.46 94.0 Not Reported 3.13 E 1.57 N 2.91 NW Yes 0.085 Rain Moderate 05/15/2019 08:18 AM   0.110 0.323 0.512 0.906 0.976 Not Reported Not Reported
05/15/2019 08:24 PM 50.54 49.64 48.92 60.44 49.46 94.0 Not Reported 1.79 NE 1.12 N 4.70 NE Yes 0.128 Rain Moderate 05/15/2019 08:18 AM   0.110 0.335 0.528 0.925 1.004 Not Reported Not Reported
05/15/2019 08:39 PM 50.18 49.28 48.56 59.90 49.46 94.0 Not Reported 1.34 N 3.13 E 3.58 E Yes 0.184 Rain Moderate 05/15/2019 08:18 AM   0.130 0.354 0.551 0.941 1.043 Not Reported Not Reported
05/15/2019 08:54 PM 50.36 49.46 48.74 59.54 49.46 94.0 Not Reported 1.57 N 2.01 NE 4.92 N Yes 0.227 Rain Moderate 05/15/2019 08:18 AM   0.154 0.382 0.591 0.965 1.094 Not Reported Not Reported
05/15/2019 09:09 PM 49.46 48.56 47.84 59.18 49.46 94.0 Not Reported 1.57 SE 3.58 E 6.04 SE Yes 0.184 Rain Moderate 05/15/2019 08:18 AM   0.157 0.394 0.614 0.996 1.134 Not Reported Not Reported
05/15/2019 09:24 PM 49.64 48.74 47.84 59.00 49.46 93.0 Not Reported 2.24 N 1.57 NW 8.95 E Yes 0.128 Rain Moderate 05/15/2019 08:18 AM   0.165 0.402 0.634 0.996 1.169 Not Reported Not Reported
05/15/2019 09:39 PM 49.46 48.56 47.66 58.28 49.46 93.0 Not Reported 2.01 N 1.12 SW 4.03 E Yes 0.184 Rain Moderate 05/15/2019 08:18 AM   0.169 0.421 0.669 1.008 1.217 Not Reported Not Reported
05/15/2019 09:54 PM 49.10 48.20 47.48 57.92 49.10 93.0 Not Reported 3.36 NE 1.34 SW 3.80 NE Yes 0.369 Rain Heavy 05/15/2019 08:18 AM   0.181 0.441 0.713 1.031 1.272 Not Reported Not Reported
05/15/2019 10:09 PM 48.74 47.84 46.94 57.74 48.74 93.0 Not Reported 3.13 NE 0.45 N 6.71 E Yes 0.184 Rain Moderate 05/15/2019 08:18 AM   0.205 0.480 0.772 1.079 1.343 Not Reported Not Reported
05/15/2019 10:24 PM 48.92 48.02 47.30 56.84 48.74 94.0 Not Reported 0.89 NE 0.89 E 5.37 SE Yes 0.184 Rain Moderate 05/15/2019 08:18 AM   0.236 0.516 0.827 1.118 1.402 Not Reported Not Reported
05/15/2019 10:39 PM 49.46 48.56 47.84 55.94 48.74 94.0 Not Reported 3.13 SE 1.57 S 4.25 N Yes 0.184 Rain Moderate 05/15/2019 08:18 AM   0.224 0.531 0.846 1.146 1.441 Not Reported Not Reported
05/15/2019 10:54 PM 49.28 48.38 47.84 55.94 48.74 94.0 Not Reported 0.89 SW 0.45 W 2.68 SE Yes 0.227 Rain Moderate 05/15/2019 08:18 AM   0.228 0.567 0.870 1.205 1.508 Not Reported Not Reported
05/15/2019 11:09 PM 49.46 48.74 48.02 55.40 48.74 94.0 Not Reported 0.45 N 0.67 S 2.01 NW Yes 0.128 Rain Moderate 05/15/2019 08:18 AM   0.205 0.575 0.902 1.240 1.547 Not Reported Not Reported
05/15/2019 11:24 PM 49.64 48.92 48.20 54.68 48.74 94.0 Not Reported 0.89 S 2.24 SE 3.80 W Yes 0.184 Rain Moderate 05/15/2019 08:18 AM   0.201 0.602 0.937 1.280 1.594 Not Reported Not Reported
05/15/2019 11:39 PM 49.64 48.92 48.38 54.50 48.74 94.0 Not Reported 1.79 NE 3.58 N 4.03 N Yes 0.085 Rain Moderate 05/15/2019 08:18 AM   0.189 0.594 0.945 1.299 1.626 Not Reported Not Reported
05/15/2019 11:54 PM 49.82 49.10 48.38 54.14 48.74 94.0 Not Reported 2.01 NW 1.79 SW 6.49 NE Yes 0.128 Rain Moderate 05/15/2019 08:18 AM   0.165 0.579 0.961 1.323 1.657 Not Reported Not Reported